createdAt,value
2023-03-12T04:38:41.989Z,-0.50
2023-03-12T04:49:18.045Z,-0.50
2023-03-12T04:59:55.091Z,-0.30
2023-03-12T05:10:30.788Z,-0.30
2023-03-12T05:21:11.619Z,-0.10
2023-03-12T05:31:47.469Z,0.00
2023-03-12T05:42:24.873Z,0.10
2023-03-12T05:53:01.108Z,0.10
2023-03-12T06:03:37.435Z,0.20
2023-03-12T06:14:14.622Z,0.30
2023-03-12T06:24:50.634Z,0.50
2023-03-12T06:35:27.828Z,0.70
2023-03-12T06:46:04.453Z,0.80
2023-03-12T06:56:40.512Z,1.00
2023-03-12T07:07:16.990Z,1.40
2023-03-12T07:18:04.632Z,2.20
2023-03-12T07:28:40.003Z,2.20
2023-03-12T07:39:15.656Z,2.30
2023-03-12T07:49:52.075Z,2.30
2023-03-12T08:00:28.641Z,2.30
2023-03-12T08:11:05.141Z,2.50
2023-03-12T08:21:40.860Z,2.40
2023-03-12T08:32:16.979Z,2.40
2023-03-12T08:42:52.862Z,2.50
2023-03-12T08:53:28.717Z,2.50
2023-03-12T09:04:05.260Z,2.70
2023-03-12T09:15:02.411Z,2.70
2023-03-12T09:25:36.263Z,3.30
2023-03-12T09:36:12.070Z,3.70
2023-03-12T09:46:57.772Z,3.70
2023-03-12T09:57:21.618Z,3.90
2023-03-12T10:08:23.085Z,4.10
2023-03-12T10:19:17.214Z,4.30
2023-03-12T10:29:39.366Z,4.40
2023-03-12T10:39:57.215Z,5.00
2023-03-12T10:50:23.076Z,5.00
2023-03-12T11:00:38.860Z,4.80
2023-03-12T11:10:55.529Z,5.60
2023-03-12T11:21:11.127Z,6.40
2023-03-12T11:31:33.386Z,6.40
2023-03-12T11:42:04.003Z,6.10
2023-03-12T11:52:44.881Z,7.40
2023-03-12T12:03:23.846Z,6.60
2023-03-12T12:14:11.631Z,7.40
2023-03-12T12:25:04.154Z,7.30
2023-03-12T12:35:28.950Z,8.20
2023-03-12T12:45:46.658Z,8.90
2023-03-12T12:56:15.510Z,9.20
2023-03-12T13:06:55.500Z,9.10
2023-03-12T13:17:36.583Z,9.10
2023-03-12T13:28:34.863Z,8.90
2023-03-12T13:39:15.552Z,8.80
2023-03-12T13:49:42.866Z,9.10
2023-03-12T13:59:59.760Z,9.60
2023-03-12T14:10:29.345Z,9.90
2023-03-12T14:20:51.176Z,10.30
2023-03-12T14:31:21.719Z,10.40
2023-03-12T14:41:42.703Z,11.30
2023-03-12T14:51:59.220Z,12.40
2023-03-12T15:02:18.528Z,12.50
2023-03-12T15:12:34.833Z,12.30
2023-03-12T15:22:52.441Z,12.20
2023-03-12T15:33:11.331Z,12.30
2023-03-12T15:43:27.284Z,12.20
2023-03-12T15:53:43.118Z,12.20
2023-03-12T16:03:59.003Z,12.20
2023-03-12T16:14:36.933Z,12.10
2023-03-12T16:24:52.503Z,12.10
2023-03-12T16:35:17.736Z,11.90
2023-03-12T16:45:37.339Z,11.80
2023-03-12T16:55:59.052Z,11.70
2023-03-12T17:06:21.726Z,11.70
2023-03-12T17:16:37.352Z,11.50
2023-03-12T17:26:53.348Z,11.40
2023-03-12T17:37:09.197Z,11.30
2023-03-12T17:47:24.563Z,11.30
2023-03-12T17:57:40.680Z,11.10
2023-03-12T18:07:56.744Z,11.30
2023-03-12T18:18:12.556Z,11.20
2023-03-12T18:28:28.580Z,11.10
2023-03-12T18:38:44.323Z,10.90
2023-03-12T18:49:07.726Z,11.00
2023-03-12T18:59:24.442Z,10.80
2023-03-12T19:09:39.869Z,10.70
2023-03-12T19:19:55.729Z,10.60
2023-03-12T19:30:13.611Z,10.50
2023-03-12T19:40:29.216Z,10.50
2023-03-12T19:50:47.293Z,10.40
2023-03-12T20:01:03.159Z,10.40
2023-03-12T20:11:19.059Z,10.30
2023-03-12T20:21:34.801Z,10.20
2023-03-12T20:31:51.550Z,10.20
2023-03-12T20:42:07.115Z,10.60
2023-03-12T20:52:22.942Z,10.60
2023-03-12T21:02:58.610Z,10.80
2023-03-12T21:13:34.693Z,10.80
2023-03-12T21:24:10.503Z,10.80
2023-03-12T21:34:46.312Z,10.80
2023-03-12T21:45:22.136Z,10.60
2023-03-12T21:55:59.506Z,10.40
2023-03-12T22:06:35.150Z,10.50
2023-03-12T22:17:10.867Z,10.50
2023-03-12T22:27:46.442Z,10.40
